Time;durP1;ratioP1;P1;durP2;ratioP2;P2;SDS_P1;SDS_P2;PMS_P1;PMS_P2;Temp;Humidity;BMP_temperature;BMP_pressure;BME280_temperature;BME280_humidity;BME280_pressure;Samples;Min_cycle;Max_cycle;Signal;HPM_P1;HPM_P2
2024/01/23 00:02:00;;;;;;;1.90;1.00;;;6.30;99.90;6.10;100372.00;;;;4897186;28;100457;-73
2024/01/23 00:04:26;;;;;;;4.57;1.33;;;7.10;99.90;6.00;100362.00;;;;4919665;28;87816;-71
2024/01/23 00:06:51;;;;;;;2.03;0.73;;;6.30;99.90;6.00;100377.00;;;;4900522;28;115848;-72
2024/01/23 00:09:17;;;;;;;2.63;0.80;;;6.70;99.90;5.90;100378.00;;;;4903654;28;116305;-73
2024/01/23 00:11:43;;;;;;;1.17;0.70;;;6.10;99.90;5.90;100373.00;;;;4895640;28;110433;-70
2024/01/23 00:14:09;;;;;;;1.13;0.80;;;6.50;99.90;5.90;100356.00;;;;4901384;28;108753;-72
2024/01/23 00:16:38;;;;;;;2.40;0.73;;;6.40;99.90;5.80;100369.00;;;;4903823;28;89671;-71
2024/01/23 00:19:03;;;;;;;1.07;0.87;;;6.10;99.90;5.80;100362.00;;;;4902333;28;88751;-72
2024/01/23 00:21:29;;;;;;;2.37;0.90;;;6.70;99.90;5.80;100356.00;;;;4902064;28;87884;-71
2024/01/23 00:23:56;;;;;;;0.70;0.50;;;6.70;99.90;5.70;100363.00;;;;4901794;28;106420;-71
2024/01/23 00:26:21;;;;;;;0.97;0.73;;;5.90;99.90;5.60;100365.00;;;;4898505;28;118154;-71
2024/01/23 00:28:47;;;;;;;1.30;0.80;;;5.90;99.90;5.50;100365.00;;;;4899376;28;117510;-72
2024/01/23 00:31:13;;;;;;;0.73;0.70;;;5.80;99.90;5.50;100372.00;;;;4899896;28;111133;-71
2024/01/23 00:33:39;;;;;;;1.47;1.00;;;5.70;99.90;5.40;100357.00;;;;4900077;28;110050;-71
2024/01/23 00:36:05;;;;;;;0.47;0.47;;;5.60;99.90;5.30;100357.00;;;;4901834;28;117709;-72
2024/01/23 00:38:31;;;;;;;6.07;0.70;;;5.60;99.90;5.20;100352.00;;;;4899288;28;88382;-72
2024/01/23 00:40:56;;;;;;;1.43;0.70;;;5.90;99.90;5.20;100351.00;;;;4898581;28;88234;-72
2024/01/23 00:43:22;;;;;;;2.33;1.13;;;5.50;99.90;5.20;100346.00;;;;4897645;28;88851;-71
2024/01/23 00:45:48;;;;;;;2.03;1.07;;;5.50;99.90;5.20;100349.00;;;;4900239;28;116579;-72
2024/01/23 00:48:13;;;;;;;1.57;0.70;;;6.40;99.90;5.20;100354.00;;;;4899977;28;95078;-73
2024/01/23 00:50:40;;;;;;;1.07;0.60;;;5.80;99.90;5.20;100343.00;;;;4899671;28;87861;-70
2024/01/23 00:53:05;;;;;;;3.67;1.07;;;5.40;99.90;5.30;100340.00;;;;4911124;28;87851;-71
2024/01/23 00:55:31;;;;;;;0.73;0.73;;;5.50;99.90;5.30;100335.00;;;;4897467;28;119189;-70
2024/01/23 00:57:56;;;;;;;6.43;1.27;;;5.70;99.90;5.30;100346.00;;;;4897089;28;117547;-71
2024/01/23 01:00:22;;;;;;;2.43;0.87;;;6.00;99.90;5.30;100356.00;;;;4897074;28;111379;-71
2024/01/23 01:02:48;;;;;;;2.93;0.83;;;5.50;99.90;5.40;100354.00;;;;4900966;28;107687;-72
2024/01/23 01:05:14;;;;;;;1.63;0.60;;;5.40;99.90;5.40;100354.00;;;;4901518;28;88952;-72
2024/01/23 01:07:39;;;;;;;3.53;1.50;;;6.60;99.90;5.40;100351.00;;;;4900053;28;89033;-72
2024/01/23 01:10:06;;;;;;;0.53;0.40;;;5.60;99.90;5.30;100350.00;;;;4895626;28;109469;-72
2024/01/23 01:12:33;;;;;;;1.90;1.03;;;5.50;99.90;5.30;100359.00;;;;4897867;28;99966;-72
2024/01/23 01:15:00;;;;;;;0.97;0.67;;;5.40;99.90;5.30;100352.00;;;;4903221;28;88009;-73
2024/01/23 01:17:26;;;;;;;3.53;1.00;;;5.50;99.90;5.30;100353.00;;;;4902632;28;91430;-70
2024/01/23 01:19:53;;;;;;;0.50;0.50;;;5.60;99.90;5.30;100363.00;;;;4902515;28;87692;-71
2024/01/23 01:22:18;;;;;;;1.43;0.70;;;5.50;99.90;5.30;100359.00;;;;4895726;28;102519;-72
2024/01/23 01:24:44;;;;;;;5.73;0.83;;;5.50;99.90;5.40;100356.00;;;;4897385;28;117073;-71
2024/01/23 01:27:10;;;;;;;3.70;1.07;;;5.50;99.90;5.40;100350.00;;;;4897109;28;116118;-71
2024/01/23 01:29:35;;;;;;;1.13;0.80;;;5.50;99.90;5.40;100354.00;;;;4898888;28;87956;-71
2024/01/23 01:32:01;;;;;;;2.73;0.83;;;5.70;99.90;5.40;100357.00;;;;4896825;28;108367;-71
2024/01/23 01:34:28;;;;;;;0.77;0.50;;;6.00;99.90;5.40;100354.00;;;;4901271;28;87995;-71
2024/01/23 01:36:53;;;;;;;2.13;0.60;;;5.60;99.90;5.50;100360.00;;;;4899388;28;88276;-74
2024/01/23 01:39:19;;;;;;;1.27;0.90;;;5.60;99.90;5.50;100374.00;;;;4875500;28;110857;-72
2024/01/23 01:41:54;;;;;;;7.73;0.73;;;6.30;99.90;5.50;100352.00;;;;4892222;28;108207;-71
2024/01/23 01:44:20;;;;;;;8.33;0.77;;;5.80;99.90;5.60;100381.00;;;;4898819;28;88154;-72
2024/01/23 01:46:47;;;;;;;0.70;0.70;;;6.00;99.90;5.80;100361.00;;;;4895175;28;106494;-75
2024/01/23 01:49:17;;;;;;;5.50;0.47;;;6.30;99.90;5.90;100373.00;;;;4891291;28;101665;-73
2024/01/23 01:51:43;;;;;;;2.63;0.97;;;6.00;99.90;6.00;100373.00;;;;4899104;28;109304;-74
2024/01/23 01:54:09;;;;;;;0.60;0.60;;;6.70;99.90;6.10;100365.00;;;;4894536;28;116796;-74
2024/01/23 01:56:35;;;;;;;3.07;1.30;;;6.20;99.90;6.20;100378.00;;;;4882019;28;117750;-74
2024/01/23 01:59:01;;;;;;;3.87;0.83;;;6.20;99.90;6.20;100375.00;;;;4911369;28;109231;-72
2024/01/23 02:01:27;;;;;;;5.30;0.80;;;6.40;99.90;6.30;100372.00;;;;4897149;28;108609;-74
2024/01/23 02:03:54;;;;;;;3.17;0.77;;;7.10;99.90;6.40;100375.00;;;;4899815;28;88474;-71
2024/01/23 02:06:20;;;;;;;2.70;1.03;;;6.70;99.90;6.40;100378.00;;;;4898522;28;88318;-72
2024/01/23 02:08:48;;;;;;;3.40;0.90;;;6.50;99.90;6.40;100373.00;;;;4901445;28;88334;-71
2024/01/23 02:11:14;;;;;;;3.07;0.83;;;7.30;99.90;6.50;100374.00;;;;4911073;28;88966;-71
2024/01/23 02:13:44;;;;;;;4.43;0.73;;;7.40;99.90;6.50;100381.00;;;;4902311;28;88214;-70
2024/01/23 02:16:11;;;;;;;1.63;0.90;;;6.90;99.90;6.50;100385.00;;;;4899682;28;88268;-73
2024/01/23 02:18:36;;;;;;;7.43;1.03;;;6.70;99.90;6.50;100384.00;;;;4898197;28;87628;-72
2024/01/23 02:21:02;;;;;;;4.23;1.67;;;6.80;99.90;6.50;100396.00;;;;4895339;28;107913;-69
2024/01/23 02:23:29;;;;;;;3.43;0.83;;;6.70;99.90;6.60;100391.00;;;;4896718;28;109617;-71
2024/01/23 02:25:55;;;;;;;1.70;0.73;;;7.60;99.90;6.60;100390.00;;;;4911671;28;90325;-70
2024/01/23 02:28:21;;;;;;;1.10;0.60;;;7.00;99.90;6.60;100390.00;;;;4898601;28;109787;-69
2024/01/23 02:30:46;;;;;;;1.73;0.80;;;6.70;99.90;6.60;100394.00;;;;4900687;28;87589;-72
2024/01/23 02:33:13;;;;;;;1.97;0.77;;;6.70;99.90;6.60;100404.00;;;;4894413;28;103997;-70
2024/01/23 02:35:39;;;;;;;6.27;1.07;;;6.70;99.90;6.50;100399.00;;;;4908754;28;87840;-75
2024/01/23 02:38:05;;;;;;;1.03;0.93;;;7.30;99.90;6.50;100409.00;;;;4900074;28;107785;-71
2024/01/23 02:40:31;;;;;;;0.93;0.80;;;6.80;99.90;6.50;100412.00;;;;4896920;28;107843;-73
2024/01/23 02:42:56;;;;;;;1.33;1.10;;;6.70;99.90;6.50;100408.00;;;;4895634;28;118054;-72
2024/01/23 02:45:23;;;;;;;1.53;0.83;;;7.20;99.90;6.50;100420.00;;;;4897080;28;115514;-71
2024/01/23 02:47:49;;;;;;;2.83;0.50;;;6.70;99.90;6.50;100422.00;;;;4898087;28;96018;-70
2024/01/23 02:50:14;;;;;;;2.87;0.87;;;7.00;99.90;6.50;100418.00;;;;4895874;28;108069;-70
2024/01/23 02:52:40;;;;;;;6.23;0.83;;;6.70;99.90;6.40;100418.00;;;;4908360;28;117412;-70
2024/01/23 02:55:06;;;;;;;2.77;0.90;;;6.60;99.90;6.40;100425.00;;;;4899675;28;116968;-71
2024/01/23 02:57:32;;;;;;;1.77;1.00;;;6.60;99.90;6.30;100419.00;;;;4902738;28;87892;-72
2024/01/23 02:59:58;;;;;;;1.40;0.93;;;6.50;99.90;6.30;100413.00;;;;4897938;28;96818;-71
2024/01/23 03:02:23;;;;;;;4.60;1.33;;;6.50;99.90;6.30;100418.00;;;;4901727;28;102114;-73
2024/01/23 03:04:50;;;;;;;3.27;1.03;;;6.50;99.90;6.30;100421.00;;;;4902471;28;96657;-71
2024/01/23 03:07:17;;;;;;;3.33;0.87;;;6.50;99.90;6.30;100418.00;;;;4901537;28;89996;-71
2024/01/23 03:09:43;;;;;;;2.80;1.33;;;6.50;99.90;6.30;100419.00;;;;4901979;28;88991;-73
2024/01/23 03:12:20;;;;;;;1.47;0.90;;;6.50;99.90;6.30;100415.00;;;;4898158;28;90154;-74
2024/01/23 03:14:48;;;;;;;1.93;0.83;;;6.40;99.90;6.30;100420.00;;;;4897394;28;110522;-71
2024/01/23 03:17:15;;;;;;;1.53;0.97;;;6.50;99.90;6.30;100429.00;;;;4901840;28;101726;-72
2024/01/23 03:19:42;;;;;;;1.23;0.67;;;7.10;99.90;6.30;100435.00;;;;4897996;28;89326;-71
2024/01/23 03:22:09;;;;;;;3.70;1.47;;;7.20;99.90;6.30;100444.00;;;;4893675;28;100553;-72
2024/01/23 03:24:39;;;;;;;3.50;0.63;;;6.50;99.90;6.30;100439.00;;;;4901911;28;88229;-71
2024/01/23 03:27:06;;;;;;;1.10;0.67;;;6.50;99.90;6.40;100450.00;;;;4895208;28;97304;-72
2024/01/23 03:29:58;;;;;;;2.73;0.87;;;6.50;99.90;6.30;100448.00;;;;4895282;28;88007;-72
2024/01/23 03:32:24;;;;;;;2.57;1.17;;;6.50;99.90;6.30;100436.00;;;;4913449;28;94914;-74
2024/01/23 03:34:50;;;;;;;0.50;0.50;;;6.50;99.90;6.20;100447.00;;;;4896061;28;88870;-74
2024/01/23 03:37:16;;;;;;;1.73;0.67;;;7.00;99.90;6.10;100439.00;;;;4896176;28;88795;-72
2024/01/23 03:39:41;;;;;;;1.80;0.97;;;6.40;99.90;6.00;100447.00;;;;4916033;28;88119;-73
2024/01/23 03:42:07;;;;;;;2.23;1.10;;;6.90;99.90;5.90;100456.00;;;;4898540;28;88374;-72
2024/01/23 03:44:33;;;;;;;1.53;1.00;;;6.10;99.90;5.80;100464.00;;;;4900496;28;116762;-72
2024/01/23 03:46:58;;;;;;;3.80;1.20;;;6.10;99.90;5.70;100460.00;;;;4895564;28;109626;-73
2024/01/23 03:49:24;;;;;;;1.63;0.93;;;6.20;99.90;5.70;100450.00;;;;4898055;28;108556;-72
2024/01/23 03:51:51;;;;;;;0.37;0.20;;;6.50;99.90;5.60;100467.00;;;;4910445;28;116476;-75
2024/01/23 03:54:17;;;;;;;1.50;0.80;;;5.90;99.90;5.60;100489.00;;;;4897764;28;87714;-74
2024/01/23 03:56:43;;;;;;;1.90;0.97;;;6.20;99.90;5.50;100500.00;;;;4897383;28;110489;-75
2024/01/23 03:59:08;;;;;;;1.73;0.70;;;5.70;99.90;5.40;100490.00;;;;4897469;28;107498;-73
2024/01/23 04:01:34;;;;;;;3.23;0.90;;;5.70;99.90;5.30;100496.00;;;;4897649;28;116563;-71
2024/01/23 04:04:00;;;;;;;1.77;0.90;;;5.90;99.90;5.20;100484.00;;;;4915939;28;110809;-73
2024/01/23 04:06:26;;;;;;;4.17;1.10;;;6.20;99.90;5.20;100501.00;;;;4901776;28;107939;-74
2024/01/23 04:08:52;;;;;;;0.70;0.70;;;5.40;99.90;5.10;100503.00;;;;4899813;28;88614;-71
2024/01/23 04:11:18;;;;;;;3.33;1.10;;;6.20;99.90;5.00;100535.00;;;;4899487;28;116410;-73
2024/01/23 04:13:43;;;;;;;2.50;0.70;;;5.30;99.90;5.00;100543.00;;;;4902514;28;117284;-72
2024/01/23 04:16:09;;;;;;;4.07;0.80;;;5.30;99.90;4.90;100565.00;;;;4882775;28;87165;-69
2024/01/23 04:18:35;;;;;;;1.30;0.97;;;5.10;99.90;4.90;100547.00;;;;4899893;28;90211;-69
2024/01/23 04:21:01;;;;;;;2.73;1.10;;;5.10;99.90;4.80;100548.00;;;;4897518;28;103077;-69
2024/01/23 04:23:28;;;;;;;6.87;1.47;;;5.00;99.90;4.80;100551.00;;;;4912667;28;88492;-69
2024/01/23 04:25:53;;;;;;;4.97;0.77;;;5.80;99.90;4.80;100542.00;;;;4916010;28;88097;-68
2024/01/23 04:28:20;;;;;;;1.80;0.60;;;5.00;99.90;4.70;100545.00;;;;4905009;28;99484;-68
2024/01/23 04:30:46;;;;;;;1.20;0.60;;;4.90;99.90;4.70;100537.00;;;;4899699;28;92073;-68
2024/01/23 04:33:12;;;;;;;1.87;0.73;;;4.90;99.90;4.70;100542.00;;;;4900634;28;88255;-69
2024/01/23 04:35:37;;;;;;;2.00;0.70;;;4.90;99.90;4.70;100554.00;;;;4898161;28;112140;-68
2024/01/23 04:38:03;;;;;;;2.20;0.97;;;5.30;99.90;4.60;100554.00;;;;4899177;28;88333;-69
2024/01/23 04:40:29;;;;;;;3.23;0.53;;;4.90;99.90;4.60;100566.00;;;;4902318;28;116352;-70
2024/01/23 04:42:54;;;;;;;1.20;0.73;;;4.80;99.90;4.60;100568.00;;;;4896124;28;98766;-68
2024/01/23 04:45:20;;;;;;;6.27;1.10;;;4.80;99.90;4.60;100565.00;;;;4896617;28;110400;-68
2024/01/23 04:47:46;;;;;;;1.63;0.70;;;5.40;99.90;4.60;100574.00;;;;4893803;28;108549;-69
2024/01/23 04:50:12;;;;;;;0.57;0.47;;;5.00;99.90;4.50;100583.00;;;;4897300;28;117706;-69
2024/01/23 04:52:37;;;;;;;0.50;0.50;;;4.60;99.90;4.40;100590.00;;;;4899270;28;116713;-68
2024/01/23 04:55:04;;;;;;;0.20;0.20;;;4.70;99.90;4.40;100588.00;;;;4898446;28;110659;-69
2024/01/23 04:57:33;;;;;;;1.87;0.70;;;4.70;99.90;4.40;100605.00;;;;4900425;28;87847;-68
2024/01/23 04:59:59;;;;;;;1.17;0.60;;;4.60;99.90;4.40;100602.00;;;;4897100;28;88881;-68
2024/01/23 05:02:26;;;;;;;0.40;0.40;;;4.70;99.90;4.40;100605.00;;;;4900257;28;117479;-67
2024/01/23 05:04:52;;;;;;;0.30;0.20;;;5.50;99.90;4.40;100605.00;;;;4900788;28;87145;-69
2024/01/23 05:07:18;;;;;;;1.90;0.53;;;5.50;99.90;4.40;100608.00;;;;4917480;28;87767;-67
2024/01/23 05:09:43;;;;;;;0.60;0.50;;;4.60;99.90;4.40;100610.00;;;;4903675;28;107955;-69
2024/01/23 05:12:09;;;;;;;0.33;0.33;;;5.50;99.90;4.40;100622.00;;;;4895395;28;116083;-68
2024/01/23 05:14:36;;;;;;;5.67;0.17;;;4.90;99.90;4.30;100619.00;;;;4898870;28;87594;-67
2024/01/23 05:17:01;;;;;;;0.83;0.63;;;5.00;99.90;4.30;100613.00;;;;4911749;28;87805;-70
2024/01/23 05:19:29;;;;;;;1.03;0.60;;;5.20;99.90;4.30;100625.00;;;;4896227;28;116336;-67
2024/01/23 05:21:55;;;;;;;1.80;0.67;;;5.40;99.90;4.20;100624.00;;;;4895642;28;88022;-67
2024/01/23 05:24:20;;;;;;;13.40;1.40;;;4.80;99.90;4.20;100634.00;;;;4896324;28;102873;-69
2024/01/23 05:26:46;;;;;;;2.73;0.20;;;4.90;99.90;4.20;100629.00;;;;4902966;28;107986;-69
2024/01/23 05:29:12;;;;;;;1.27;0.53;;;4.40;99.90;4.20;100629.00;;;;4896542;28;116668;-67
2024/01/23 05:31:37;;;;;;;0.30;0.23;;;4.50;99.90;4.20;100639.00;;;;4857464;28;1116947;-69
2024/01/23 05:34:03;;;;;;;0.20;0.20;;;4.40;99.90;4.20;100637.00;;;;4903422;28;105897;-69
2024/01/23 05:36:29;;;;;;;0.30;0.30;;;4.40;99.90;4.20;100647.00;;;;4898701;28;108754;-68
2024/01/23 05:38:54;;;;;;;1.27;0.90;;;4.40;99.90;4.20;100639.00;;;;4899571;28;118778;-69
2024/01/23 05:41:20;;;;;;;0.20;0.20;;;5.50;99.90;4.20;100652.00;;;;4904969;28;117375;-70
2024/01/23 05:43:46;;;;;;;0.90;0.57;;;4.40;99.90;4.20;100649.00;;;;4896500;28;109715;-69
2024/01/23 05:46:11;;;;;;;2.93;0.57;;;4.40;99.90;4.20;100654.00;;;;4893050;28;87726;-68
2024/01/23 05:48:37;;;;;;;0.83;0.70;;;5.40;99.90;4.30;100651.00;;;;4892728;28;117343;-68
2024/01/23 05:51:03;;;;;;;0.50;0.50;;;4.40;99.90;4.30;100652.00;;;;4897934;28;116077;-69
2024/01/23 05:53:28;;;;;;;0.47;0.47;;;4.50;99.90;4.30;100660.00;;;;4896319;28;103730;-69
2024/01/23 05:55:54;;;;;;;0.67;0.60;;;4.50;99.90;4.30;100669.00;;;;4897303;28;108538;-68
2024/01/23 05:58:20;;;;;;;1.87;0.80;;;4.40;99.90;4.20;100668.00;;;;4895849;28;116699;-68
2024/01/23 06:00:45;;;;;;;0.93;0.63;;;4.40;99.90;4.20;100676.00;;;;4892865;28;117779;-67
2024/01/23 06:03:11;;;;;;;7.67;1.00;;;4.40;99.90;4.20;100673.00;;;;4893225;28;104414;-70
2024/01/23 06:05:37;;;;;;;0.63;0.47;;;4.50;99.90;4.20;100675.00;;;;4895642;28;109116;-69
2024/01/23 06:08:03;;;;;;;1.67;0.53;;;4.40;99.90;4.20;100678.00;;;;4891784;28;117835;-69
2024/01/23 06:10:28;;;;;;;0.40;0.40;;;4.50;99.90;4.20;100698.00;;;;4897867;28;87927;-68
2024/01/23 06:12:54;;;;;;;2.30;0.67;;;4.50;99.90;4.30;100700.00;;;;4896807;28;108648;-70
2024/01/23 06:15:20;;;;;;;3.33;0.80;;;4.50;99.90;4.20;100719.00;;;;4895047;28;88061;-69
2024/01/23 06:17:46;;;;;;;0.60;0.47;;;4.50;99.90;4.20;100716.00;;;;4892421;28;117869;-68
2024/01/23 06:20:12;;;;;;;0.20;0.20;;;4.70;99.90;4.20;100723.00;;;;4895146;28;87948;-68
2024/01/23 06:22:38;;;;;;;4.10;0.60;;;4.50;99.90;4.20;100728.00;;;;4899364;28;87607;-69
2024/01/23 06:25:07;;;;;;;0.90;0.47;;;5.00;99.90;4.20;100741.00;;;;4893236;28;88717;-70
2024/01/23 06:27:33;;;;;;;1.23;0.50;;;4.50;99.90;4.10;100758.00;;;;4895815;28;88495;-70
2024/01/23 06:29:59;;;;;;;0.87;0.37;;;4.40;99.90;4.10;100747.00;;;;4892367;28;88461;-70
2024/01/23 06:32:25;;;;;;;0.93;0.30;;;4.30;99.90;4.00;100753.00;;;;4894524;28;88339;-70
2024/01/23 06:34:53;;;;;;;2.40;0.60;;;4.50;99.90;4.00;100758.00;;;;4897399;28;87723;-68
2024/01/23 06:37:20;;;;;;;1.60;0.80;;;4.20;99.90;4.00;100773.00;;;;4891544;28;116978;-68
2024/01/23 06:39:47;;;;;;;0.43;0.40;;;4.20;99.90;4.00;100774.00;;;;4901189;28;88138;-69
2024/01/23 06:42:13;;;;;;;1.40;0.63;;;4.20;99.90;4.00;100790.00;;;;4899114;28;87094;-71
2024/01/23 06:44:39;;;;;;;0.50;0.50;;;4.50;99.90;4.00;100794.00;;;;4899091;28;106844;-70
2024/01/23 06:47:05;;;;;;;0.27;0.27;;;4.30;99.90;4.00;100800.00;;;;4897454;28;88154;-70
2024/01/23 06:49:31;;;;;;;0.47;0.37;;;4.30;99.90;4.10;100805.00;;;;4893160;28;88760;-72
2024/01/23 06:51:57;;;;;;;0.13;0.13;;;4.30;99.90;4.10;100822.00;;;;4899920;28;98694;-73
2024/01/23 06:54:23;;;;;;;1.13;0.73;;;4.90;99.90;4.10;100821.00;;;;4897124;28;103722;-70
2024/01/23 06:56:48;;;;;;;5.70;0.97;;;4.40;99.90;4.20;100831.00;;;;4899222;28;117285;-73
2024/01/23 06:59:15;;;;;;;4.47;0.63;;;4.40;99.90;4.20;100831.00;;;;4894692;28;117591;-71
2024/01/23 07:01:41;;;;;;;0.53;0.53;;;4.40;99.90;4.20;100835.00;;;;4894511;28;87860;-70
2024/01/23 07:04:07;;;;;;;1.00;0.47;;;4.50;99.90;4.30;100838.00;;;;4894537;28;96070;-71
2024/01/23 07:06:33;;;;;;;2.67;0.50;;;5.40;99.90;4.30;100850.00;;;;4899443;28;87749;-74
2024/01/23 07:08:59;;;;;;;0.90;0.80;;;5.10;99.90;4.40;100849.00;;;;4892125;28;89201;-72
2024/01/23 07:11:25;;;;;;;3.27;0.80;;;5.20;99.90;4.40;100862.00;;;;4899046;28;109159;-72
2024/01/23 07:13:55;;;;;;;1.10;0.53;;;4.60;99.90;4.50;100874.00;;;;4898876;28;88752;-73
2024/01/23 07:16:20;;;;;;;12.60;1.47;;;4.70;99.90;4.50;100881.00;;;;4896545;28;118311;-75
2024/01/23 07:18:46;;;;;;;4.43;0.43;;;4.70;99.90;4.50;100880.00;;;;4896392;28;118158;-72
2024/01/23 07:21:12;;;;;;;1.70;1.07;;;4.70;99.90;4.60;100877.00;;;;4895429;28;111100;-73
2024/01/23 07:23:38;;;;;;;4.30;1.17;;;4.70;99.90;4.60;100883.00;;;;4896450;28;87862;-72
2024/01/23 07:26:04;;;;;;;1.13;0.77;;;5.10;99.90;4.60;100906.00;;;;4898012;28;105954;-73
2024/01/23 07:28:30;;;;;;;2.40;0.90;;;5.50;99.90;4.60;100905.00;;;;4880775;28;106859;-73
2024/01/23 07:30:56;;;;;;;1.80;0.83;;;4.80;99.90;4.60;100897.00;;;;4895662;28;89595;-74
2024/01/23 07:33:21;;;;;;;3.60;0.60;;;4.80;99.90;4.60;100913.00;;;;4898861;28;88027;-76
2024/01/23 07:35:47;;;;;;;2.10;1.10;;;4.80;99.90;4.70;100905.00;;;;4893302;28;102941;-73
2024/01/23 07:38:13;;;;;;;1.93;0.87;;;4.90;99.90;4.70;100898.00;;;;4896405;28;88851;-74
2024/01/23 07:40:38;;;;;;;9.60;1.33;;;5.40;99.90;4.70;100911.00;;;;4896203;28;111770;-76
2024/01/23 07:43:05;;;;;;;3.23;0.60;;;4.80;99.90;4.70;100922.00;;;;4906129;28;108160;-74
2024/01/23 07:45:31;;;;;;;1.03;0.53;;;4.90;99.90;4.70;100928.00;;;;4896022;28;88473;-75
2024/01/23 07:47:57;;;;;;;1.60;0.87;;;5.00;99.90;4.70;100916.00;;;;4881050;28;105096;-76
2024/01/23 07:50:22;;;;;;;1.50;0.40;;;5.80;99.90;4.80;100917.00;;;;4895948;28;111148;-74
2024/01/23 07:52:48;;;;;;;2.67;0.67;;;6.00;99.90;4.80;100927.00;;;;4896789;28;108989;-73
2024/01/23 07:55:15;;;;;;;0.87;0.57;;;4.90;99.90;4.90;100922.00;;;;4891156;28;116838;-73
2024/01/23 07:57:41;;;;;;;0.93;0.50;;;5.10;99.90;4.90;100926.00;;;;4895250;28;102708;-72
2024/01/23 08:00:07;;;;;;;2.27;0.73;;;5.20;99.90;4.90;100940.00;;;;4877684;28;88115;-73
2024/01/23 08:02:33;;;;;;;1.37;0.80;;;5.10;99.90;5.00;100936.00;;;;4907263;28;88938;-74
2024/01/23 08:05:00;;;;;;;0.90;0.40;;;5.90;99.90;5.00;100939.00;;;;4887832;28;116737;-73
2024/01/23 08:07:25;;;;;;;1.50;0.97;;;5.10;99.90;5.10;100940.00;;;;4899290;28;88094;-72
2024/01/23 08:09:51;;;;;;;2.13;0.60;;;6.10;99.90;5.10;100943.00;;;;4896590;28;109362;-74
2024/01/23 08:12:18;;;;;;;1.03;0.83;;;5.20;99.90;5.10;100943.00;;;;4912690;28;98702;-73
2024/01/23 08:14:44;;;;;;;1.13;0.70;;;5.40;99.90;5.20;100946.00;;;;4892147;28;90256;-74
2024/01/23 08:17:13;;;;;;;3.80;1.00;;;6.20;99.90;5.20;100937.00;;;;4909805;28;87947;-73
2024/01/23 08:19:40;;;;;;;1.67;0.93;;;6.30;99.90;5.20;100936.00;;;;4897076;28;100961;-73
2024/01/23 08:22:06;;;;;;;0.77;0.70;;;5.20;99.90;5.20;100928.00;;;;4900827;28;87935;-71
2024/01/23 08:24:32;;;;;;;3.17;0.60;;;6.10;99.90;5.20;100934.00;;;;4900484;28;88437;-71
2024/01/23 08:26:58;;;;;;;0.97;0.77;;;5.40;99.90;5.30;100949.00;;;;4897800;28;90544;-71
2024/01/23 08:29:24;;;;;;;3.63;0.80;;;5.50;99.90;5.30;100957.00;;;;4902278;28;110563;-70
2024/01/23 08:31:49;;;;;;;1.27;0.70;;;5.40;99.90;5.30;100965.00;;;;4900698;28;110163;-71
2024/01/23 08:34:15;;;;;;;2.57;0.67;;;5.40;99.90;5.30;100965.00;;;;4896407;28;117083;-71
2024/01/23 08:36:41;;;;;;;3.20;1.10;;;5.70;99.90;5.30;100965.00;;;;4898967;28;117009;-74
2024/01/23 08:39:07;;;;;;;2.83;0.50;;;5.40;99.90;5.30;100971.00;;;;4904448;28;87621;-72
2024/01/23 08:41:33;;;;;;;2.23;0.90;;;6.10;99.90;5.30;100964.00;;;;4903568;28;87600;-72
2024/01/23 08:43:59;;;;;;;0.40;0.40;;;5.80;99.90;5.40;100958.00;;;;4903160;28;103044;-71
2024/01/23 08:46:25;;;;;;;1.13;0.47;;;5.40;99.90;5.40;100968.00;;;;4904808;28;87925;-70
2024/01/23 08:48:51;;;;;;;0.97;0.70;;;5.60;99.90;5.40;100969.00;;;;4899078;28;109715;-70
2024/01/23 08:51:17;;;;;;;3.30;1.17;;;5.60;99.90;5.40;100970.00;;;;4899839;28;88748;-70
2024/01/23 08:53:43;;;;;;;1.10;0.57;;;5.60;99.90;5.50;100983.00;;;;4901050;28;107326;-69
2024/01/23 08:56:08;;;;;;;4.53;1.00;;;6.50;99.90;5.50;100981.00;;;;4897507;28;103291;-69
2024/01/23 08:58:34;;;;;;;0.30;0.30;;;5.70;99.90;5.50;100988.00;;;;4899681;28;111399;-68
2024/01/23 09:01:00;;;;;;;0.93;0.63;;;5.60;99.90;5.50;100991.00;;;;4897206;28;110181;-69
2024/01/23 09:03:25;;;;;;;2.10;0.87;;;5.70;99.90;5.50;100991.00;;;;4896767;28;118509;-68
2024/01/23 09:05:51;;;;;;;2.97;1.17;;;6.00;99.90;5.50;100985.00;;;;4910267;28;117077;-69
2024/01/23 09:08:17;;;;;;;2.43;0.70;;;5.80;99.90;5.60;100978.00;;;;4902542;28;86997;-69
2024/01/23 09:10:42;;;;;;;2.87;1.83;;;6.00;99.90;5.60;100981.00;;;;4903514;28;99233;-71
2024/01/23 09:13:08;;;;;;;2.87;1.73;;;6.40;99.90;5.60;100993.00;;;;4898096;28;116653;-69
2024/01/23 09:15:35;;;;;;;13.27;1.93;;;5.70;99.90;5.60;100992.00;;;;4909818;28;91344;-69
2024/01/23 09:18:01;;;;;;;2.60;1.00;;;6.30;99.90;5.70;101010.00;;;;4900401;28;97007;-70
2024/01/23 09:20:27;;;;;;;2.40;1.23;;;5.90;99.90;5.70;101003.00;;;;4909084;28;98889;-69
2024/01/23 09:22:52;;;;;;;5.63;2.03;;;6.90;99.90;5.70;101021.00;;;;4896705;28;117443;-69
2024/01/23 09:25:18;;;;;;;0.40;0.40;;;5.90;99.90;5.70;101016.00;;;;4896812;28;116296;-70
2024/01/23 09:27:44;;;;;;;1.83;0.90;;;6.00;99.90;5.70;101027.00;;;;4900023;28;110716;-71
2024/01/23 09:30:12;;;;;;;4.33;0.57;;;5.90;99.90;5.70;101032.00;;;;4901663;28;107456;-70
2024/01/23 09:32:38;;;;;;;1.90;0.93;;;5.80;99.90;5.70;101019.00;;;;4903667;28;109155;-70
2024/01/23 09:35:04;;;;;;;3.13;0.90;;;6.70;99.90;5.70;101024.00;;;;4894555;28;118388;-68
2024/01/23 09:37:30;;;;;;;3.00;1.23;;;5.90;99.90;5.80;101031.00;;;;4893283;28;89251;-68
2024/01/23 09:39:55;;;;;;;1.83;0.67;;;5.90;99.90;5.80;101045.00;;;;4898672;28;107827;-68
2024/01/23 09:42:25;;;;;;;3.83;1.20;;;6.60;99.90;5.80;101025.00;;;;4897279;28;117891;-69
2024/01/23 09:44:53;;;;;;;5.27;1.17;;;6.40;99.90;5.90;101025.00;;;;4897963;28;89687;-70
2024/01/23 09:47:20;;;;;;;3.60;0.97;;;6.10;99.90;6.00;101041.00;;;;4896735;28;87956;-68
2024/01/23 09:49:47;;;;;;;4.53;1.93;;;6.20;99.90;6.00;101034.00;;;;4896774;28;90395;-70
2024/01/23 09:52:14;;;;;;;1.63;0.97;;;6.20;99.90;6.10;101046.00;;;;4896691;28;88910;-72
2024/01/23 09:54:40;;;;;;;2.40;1.23;;;6.90;99.90;6.20;101058.00;;;;4908163;28;97674;-70
2024/01/23 09:57:07;;;;;;;5.93;2.20;;;6.60;99.90;6.30;101039.00;;;;4901006;28;87075;-69
2024/01/23 09:59:33;;;;;;;1.97;1.20;;;6.40;99.90;6.30;101053.00;;;;4913901;28;87958;-69
2024/01/23 10:01:59;;;;;;;5.73;0.90;;;6.50;99.90;6.30;101052.00;;;;4899731;28;117958;-70
2024/01/23 10:04:25;;;;;;;2.13;1.10;;;6.50;99.90;6.40;101054.00;;;;4901421;28;88774;-71
2024/01/23 10:06:51;;;;;;;4.00;1.40;;;6.50;99.90;6.40;101047.00;;;;4908236;28;109746;-71
2024/01/23 10:09:18;;;;;;;1.47;1.00;;;7.20;99.90;6.40;101055.00;;;;4898767;28;88898;-71
2024/01/23 10:11:43;;;;;;;2.40;1.20;;;6.60;99.90;6.40;101065.00;;;;4910249;28;90833;-71
2024/01/23 10:14:09;;;;;;;0.70;0.50;;;6.60;99.90;6.50;101077.00;;;;4898175;28;114216;-71
2024/01/23 10:16:39;;;;;;;3.40;1.33;;;6.60;99.90;6.50;101064.00;;;;4910319;28;88033;-70
2024/01/23 10:19:10;;;;;;;3.17;0.83;;;6.90;99.90;6.50;101061.00;;;;4899796;28;87930;-70
2024/01/23 10:21:35;;;;;;;6.80;1.87;;;7.30;99.90;6.60;101072.00;;;;4898563;28;87526;-72
2024/01/23 10:24:01;;;;;;;2.00;1.33;;;6.70;99.90;6.60;101083.00;;;;4898115;28;115614;-70
2024/01/23 10:26:26;;;;;;;1.40;1.30;;;7.60;99.90;6.60;101087.00;;;;4900680;28;108661;-70
2024/01/23 10:28:52;;;;;;;3.50;1.03;;;6.70;99.90;6.60;101088.00;;;;4899278;28;108283;-70
2024/01/23 10:31:18;;;;;;;4.90;1.03;;;6.80;99.90;6.70;101077.00;;;;4897087;28;110747;-70
2024/01/23 10:33:44;;;;;;;4.70;1.40;;;6.70;99.90;6.70;101076.00;;;;4895740;28;93591;-72
2024/01/23 10:36:10;;;;;;;3.43;1.37;;;6.70;99.90;6.70;101062.00;;;;4896421;28;111610;-70
2024/01/23 10:38:37;;;;;;;4.70;2.17;;;6.90;99.90;6.70;101062.00;;;;4901984;28;89601;-72
2024/01/23 10:41:04;;;;;;;3.33;0.97;;;6.80;99.90;6.70;101080.00;;;;4911990;28;87864;-72
2024/01/23 10:43:31;;;;;;;2.40;1.60;;;7.00;99.90;6.80;101073.00;;;;4910574;28;88060;-72
2024/01/23 10:46:04;;;;;;;4.10;1.53;;;6.90;99.90;6.80;101077.00;;;;4899184;28;87062;-72
2024/01/23 10:48:30;;;;;;;6.63;2.27;;;6.90;99.90;6.80;101069.00;;;;4895558;28;87987;-73
2024/01/23 10:51:17;;;;;;;4.23;1.30;;;7.50;99.90;6.80;101072.00;;;;4897995;28;88784;-72
2024/01/23 10:54:08;;;;;;;11.87;1.90;;;6.90;99.90;6.80;101085.00;;;;4899954;28;88934;-73